createdAt,value
2019-02-05T00:00:47.231Z,-0.60
2019-02-05T00:02:42.543Z,-0.60
2019-02-05T00:04:36.859Z,-0.60
2019-02-05T00:06:31.559Z,-0.60
2019-02-05T00:08:26.698Z,-0.60
2019-02-05T00:10:21.451Z,-0.60
2019-02-05T00:12:16.500Z,-0.60
2019-02-05T00:14:11.746Z,-0.60
2019-02-05T00:16:06.973Z,-0.70
2019-02-05T00:18:02.016Z,-0.60
2019-02-05T00:19:56.383Z,-0.70
2019-02-05T00:21:53.068Z,-0.70
2019-02-05T00:23:48.130Z,-0.70
2019-02-05T00:25:42.937Z,-0.70
2019-02-05T00:27:38.066Z,-0.70
2019-02-05T00:29:33.045Z,-0.70
2019-02-05T00:31:27.919Z,-0.70
2019-02-05T00:33:25.578Z,-0.70
2019-02-05T00:35:20.593Z,-0.70
2019-02-05T00:37:15.258Z,-0.70
2019-02-05T00:39:10.704Z,-0.70
2019-02-05T00:41:05.010Z,-0.70
2019-02-05T00:42:59.656Z,-0.70
2019-02-05T00:44:54.002Z,-0.60
2019-02-05T00:46:48.821Z,-0.60
2019-02-05T00:48:43.793Z,-0.60
2019-02-05T00:50:38.691Z,-0.70
2019-02-05T00:52:32.731Z,-0.60
2019-02-05T00:54:27.423Z,-0.70
2019-02-05T00:56:22.500Z,-0.60
2019-02-05T00:58:17.495Z,-0.60
2019-02-05T01:00:17.555Z,-0.70
2019-02-05T01:02:12.505Z,-0.70
2019-02-05T01:04:06.659Z,-0.70
2019-02-05T01:06:03.074Z,-0.70
2019-02-05T01:07:57.423Z,-0.70
2019-02-05T01:09:51.576Z,-0.70
2019-02-05T01:11:46.303Z,-0.70
2019-02-05T01:13:41.143Z,-0.70
2019-02-05T01:15:36.254Z,-0.60
2019-02-05T01:17:31.045Z,-0.60
2019-02-05T01:19:25.768Z,-0.60
2019-02-05T01:21:20.165Z,-0.60
2019-02-05T01:23:15.094Z,-0.60
2019-02-05T01:25:10.292Z,-0.60
2019-02-05T01:27:05.568Z,-0.60
2019-02-05T01:29:00.613Z,-0.60
2019-02-05T01:30:55.254Z,-0.60
2019-02-05T01:32:50.715Z,-0.60
2019-02-05T01:34:45.754Z,-0.60
2019-02-05T01:36:40.303Z,-0.70
2019-02-05T01:38:35.555Z,-0.70
2019-02-05T01:40:30.599Z,-0.60
2019-02-05T01:42:25.552Z,-0.70
2019-02-05T01:44:20.653Z,-0.70
2019-02-05T01:46:15.608Z,-0.70
2019-02-05T01:48:10.680Z,-0.70
2019-02-05T01:50:06.924Z,-0.70
2019-02-05T01:52:01.967Z,-0.60
2019-02-05T01:53:56.941Z,-0.70
2019-02-05T01:55:51.212Z,-0.70
2019-02-05T01:57:46.490Z,-0.70
2019-02-05T01:59:40.761Z,-0.70
2019-02-05T02:01:35.359Z,-0.70
2019-02-05T02:03:30.016Z,-0.70
2019-02-05T02:05:26.678Z,-0.60
2019-02-05T02:07:21.127Z,-0.60
2019-02-05T02:09:15.401Z,-0.60
2019-02-05T02:11:10.711Z,-0.60
2019-02-05T02:13:05.251Z,-0.60
2019-02-05T02:15:00.518Z,-0.60
2019-02-05T02:16:55.243Z,-0.60
2019-02-05T02:18:49.325Z,-0.60
2019-02-05T02:20:44.327Z,-0.60
2019-02-05T02:22:39.300Z,-0.60
2019-02-05T02:24:34.082Z,-0.70
2019-02-05T02:26:29.106Z,-0.70
2019-02-05T02:28:23.768Z,-0.70
2019-02-05T02:30:30.596Z,-0.70
2019-02-05T02:32:27.012Z,-0.70
2019-02-05T02:34:21.399Z,-0.70
2019-02-05T02:36:16.255Z,-0.70
2019-02-05T02:38:11.037Z,-0.80
2019-02-05T02:40:06.450Z,-0.80
2019-02-05T02:42:01.698Z,-0.80
2019-02-05T02:43:56.782Z,-0.90
2019-02-05T02:45:51.765Z,-0.80
2019-02-05T02:47:46.589Z,-0.90
2019-02-05T02:49:41.630Z,-0.80
2019-02-05T02:51:36.341Z,-0.80
2019-02-05T02:53:31.379Z,-0.90
2019-02-05T02:55:27.362Z,-0.90
2019-02-05T02:57:22.229Z,-0.90
2019-02-05T02:59:17.395Z,-0.90
2019-02-05T03:01:12.165Z,-0.90
2019-02-05T03:03:07.062Z,-0.90
2019-02-05T03:05:01.853Z,-0.90
2019-02-05T03:06:57.738Z,-1.00
2019-02-05T03:08:52.539Z,-0.90
2019-02-05T03:10:47.206Z,-1.00
2019-02-05T03:12:42.027Z,-1.00
2019-02-05T03:14:36.960Z,-0.90
2019-02-05T03:16:31.839Z,-0.90
2019-02-05T03:18:26.813Z,-0.90
2019-02-05T03:20:21.337Z,-0.90
2019-02-05T03:22:16.393Z,-0.90
2019-02-05T03:24:11.182Z,-0.90
2019-02-05T03:26:06.493Z,-0.90
2019-02-05T03:28:00.755Z,-0.90
2019-02-05T03:29:55.303Z,-0.90
2019-02-05T03:31:49.438Z,-0.90
2019-02-05T03:33:43.621Z,-0.90
2019-02-05T03:35:38.339Z,-1.00
2019-02-05T03:37:32.717Z,-1.00
2019-02-05T03:39:27.454Z,-1.00
2019-02-05T03:41:22.043Z,-1.00
2019-02-05T03:43:17.030Z,-1.00
2019-02-05T03:45:12.335Z,-1.10
2019-02-05T03:47:07.240Z,-1.10
2019-02-05T03:49:02.738Z,-1.10
2019-02-05T03:51:08.746Z,-1.10
2019-02-05T03:53:04.958Z,-1.10
2019-02-05T03:55:49.784Z,-1.00
2019-02-05T03:58:19.423Z,-1.10
2019-02-05T04:00:54.328Z,-1.00
2019-02-05T04:03:21.706Z,-1.00
2019-02-05T04:05:32.620Z,-0.90
2019-02-05T04:08:20.976Z,-0.90
2019-02-05T04:11:03.377Z,-0.90
2019-02-05T04:13:27.102Z,-0.90
2019-02-05T04:15:52.939Z,-0.90
2019-02-05T04:18:29.059Z,-0.90
2019-02-05T04:20:58.635Z,-0.90
2019-02-05T04:24:00.479Z,-1.00
2019-02-05T04:26:24.180Z,-1.00
2019-02-05T04:29:01.547Z,-1.10
2019-02-05T04:31:09.922Z,-1.20
2019-02-05T04:33:23.744Z,-1.30
2019-02-05T04:35:53.631Z,-1.20
2019-02-05T04:38:43.035Z,-1.20
2019-02-05T04:41:09.055Z,-1.20
2019-02-05T04:43:16.073Z,-1.20
2019-02-05T04:45:42.378Z,-1.20
2019-02-05T04:48:13.465Z,-1.20
2019-02-05T04:50:19.336Z,-1.30
2019-02-05T04:52:47.590Z,-1.30
2019-02-05T04:55:29.997Z,-1.30
2019-02-05T04:57:59.115Z,-1.30
2019-02-05T05:00:37.323Z,-1.30
2019-02-05T05:03:20.933Z,-1.40
2019-02-05T05:05:40.562Z,-1.50
2019-02-05T05:08:12.729Z,-1.50
2019-02-05T05:10:07.803Z,-1.60
2019-02-05T05:12:02.558Z,-1.70
2019-02-05T05:13:57.595Z,-1.70
2019-02-05T05:15:52.247Z,-1.70
2019-02-05T05:17:47.382Z,-1.70
2019-02-05T05:19:42.441Z,-1.80
2019-02-05T05:21:37.432Z,-1.80
2019-02-05T05:23:33.004Z,-1.80
2019-02-05T05:25:29.537Z,-1.80
2019-02-05T05:27:25.675Z,-1.80
2019-02-05T05:29:20.070Z,-1.80
2019-02-05T05:31:14.812Z,-1.90
2019-02-05T05:33:10.079Z,-1.80
2019-02-05T05:35:06.988Z,-1.80
2019-02-05T05:37:02.413Z,-1.90
2019-02-05T05:38:56.515Z,-1.90
2019-02-05T05:40:51.144Z,-1.90
2019-02-05T05:42:45.550Z,-1.90
2019-02-05T05:44:40.708Z,-1.90
2019-02-05T05:46:35.763Z,-2.00
2019-02-05T05:48:30.725Z,-2.00
2019-02-05T05:50:25.042Z,-2.00
2019-02-05T05:52:20.169Z,-2.00
2019-02-05T05:54:14.717Z,-2.10
2019-02-05T05:56:09.818Z,-2.10
2019-02-05T05:58:04.568Z,-2.10
2019-02-05T05:59:59.580Z,-2.20
2019-02-05T06:01:54.637Z,-2.20
2019-02-05T06:03:49.692Z,-2.20
2019-02-05T06:05:44.512Z,-2.20
2019-02-05T06:07:38.983Z,-2.20
2019-02-05T06:09:33.937Z,-2.20
2019-02-05T06:11:28.225Z,-2.30
2019-02-05T06:13:23.389Z,-2.30
2019-02-05T06:15:18.392Z,-2.30
2019-02-05T06:17:13.112Z,-2.30
2019-02-05T06:19:08.225Z,-2.30
2019-02-05T06:21:02.447Z,-2.30
2019-02-05T06:22:57.501Z,-2.30
2019-02-05T06:24:51.773Z,-2.30
2019-02-05T06:26:46.640Z,-2.30
2019-02-05T06:28:41.440Z,-2.30
2019-02-05T06:30:36.463Z,-2.40
2019-02-05T06:32:32.543Z,-2.30
2019-02-05T06:34:27.218Z,-2.30
2019-02-05T06:36:22.308Z,-2.30
2019-02-05T06:38:17.487Z,-2.30
2019-02-05T06:40:13.119Z,-2.30
2019-02-05T06:42:08.763Z,-2.30
2019-02-05T06:44:03.479Z,-2.40
2019-02-05T06:45:58.116Z,-2.40
2019-02-05T06:47:52.546Z,-2.50
2019-02-05T06:49:47.205Z,-2.50
2019-02-05T06:51:41.857Z,-2.50
2019-02-05T06:53:36.978Z,-2.60
2019-02-05T06:55:32.099Z,-2.60
2019-02-05T06:57:26.404Z,-2.70
2019-02-05T06:59:21.608Z,-2.70
2019-02-05T07:01:15.955Z,-2.70
2019-02-05T07:03:10.884Z,-2.70
2019-02-05T07:05:07.739Z,-2.70
2019-02-05T07:07:02.481Z,-2.70
2019-02-05T07:08:57.545Z,-2.70
2019-02-05T07:10:52.204Z,-2.70
2019-02-05T07:12:47.353Z,-2.70
2019-02-05T07:14:42.656Z,-2.70
2019-02-05T07:16:37.670Z,-2.70
2019-02-05T07:18:32.679Z,-2.70
2019-02-05T07:20:27.984Z,-2.70
2019-02-05T07:22:22.904Z,-2.70
2019-02-05T07:24:18.002Z,-2.70
2019-02-05T07:26:12.637Z,-2.70
2019-02-05T07:28:07.428Z,-2.70
2019-02-05T07:30:02.031Z,-2.70
2019-02-05T07:31:58.256Z,-2.70
2019-02-05T07:33:54.226Z,-2.70
2019-02-05T07:35:49.148Z,-2.70
2019-02-05T07:37:44.045Z,-2.70
2019-02-05T07:39:38.793Z,-2.70
2019-02-05T07:41:33.776Z,-2.60
2019-02-05T07:43:30.125Z,-2.50
2019-02-05T07:45:24.940Z,-2.40
2019-02-05T07:47:19.843Z,-2.30
2019-02-05T07:49:14.647Z,-2.30
2019-02-05T07:51:09.712Z,-2.20
2019-02-05T07:53:04.817Z,-2.10
2019-02-05T07:54:59.722Z,-2.00
2019-02-05T07:56:54.722Z,-1.90
2019-02-05T07:58:49.846Z,-1.80
2019-02-05T08:00:43.858Z,-1.80
2019-02-05T08:02:39.054Z,-1.80
2019-02-05T08:04:35.287Z,-1.80
2019-02-05T08:06:30.262Z,-1.80
2019-02-05T08:08:25.359Z,-1.80
2019-02-05T08:10:21.728Z,-1.80
2019-02-05T08:12:16.221Z,-1.70
2019-02-05T08:14:11.066Z,-1.70
2019-02-05T08:16:06.917Z,-1.60
2019-02-05T08:18:01.112Z,-1.50
2019-02-05T08:19:55.333Z,-1.50
2019-02-05T08:21:49.616Z,-1.40
2019-02-05T08:23:44.370Z,-1.40
2019-02-05T08:25:39.196Z,-1.30
2019-02-05T08:27:33.954Z,-1.30
2019-02-05T08:29:28.749Z,-1.30
2019-02-05T08:31:23.711Z,-1.20
2019-02-05T08:33:18.869Z,-1.20
2019-02-05T08:35:14.114Z,-1.10
2019-02-05T08:37:08.821Z,-1.00
2019-02-05T08:39:05.107Z,-0.90
2019-02-05T08:41:00.812Z,-0.70
2019-02-05T08:42:55.495Z,-0.50
2019-02-05T08:44:50.626Z,-0.30
2019-02-05T08:46:45.146Z,-0.10
2019-02-05T08:48:39.757Z,0.00
2019-02-05T08:50:34.226Z,0.00
2019-02-05T08:52:28.227Z,0.00
2019-02-05T08:54:22.278Z,0.10
2019-02-05T08:56:17.231Z,0.20
2019-02-05T08:58:12.241Z,0.20
2019-02-05T09:00:11.119Z,0.20
2019-02-05T09:02:06.675Z,0.20
2019-02-05T09:04:01.715Z,0.30
2019-02-05T09:05:56.753Z,0.30
2019-02-05T09:07:51.786Z,0.40
2019-02-05T09:09:46.359Z,0.50
2019-02-05T09:11:41.122Z,0.50
2019-02-05T09:13:35.357Z,0.60
2019-02-05T09:15:30.037Z,0.70
2019-02-05T09:17:24.520Z,0.80
2019-02-05T09:19:20.311Z,1.00
2019-02-05T09:21:14.552Z,1.10
2019-02-05T09:23:08.858Z,1.20
2019-02-05T09:25:03.690Z,1.40
2019-02-05T09:26:57.929Z,1.50
2019-02-05T09:28:52.556Z,1.60
2019-02-05T09:30:46.566Z,1.50
2019-02-05T09:32:41.264Z,1.40
2019-02-05T09:34:36.144Z,1.40
2019-02-05T09:36:30.841Z,1.30
2019-02-05T09:38:25.679Z,1.20
2019-02-05T09:40:25.341Z,1.10
2019-02-05T09:42:20.616Z,1.00
2019-02-05T09:44:15.554Z,0.80
2019-02-05T09:46:10.297Z,0.80
2019-02-05T09:48:05.809Z,0.90
2019-02-05T09:50:00.075Z,0.90
2019-02-05T09:51:55.094Z,1.00
2019-02-05T09:53:49.515Z,1.10
2019-02-05T09:55:44.482Z,1.00
2019-02-05T09:57:38.729Z,1.10
2019-02-05T09:59:44.886Z,1.10
2019-02-05T10:01:29.807Z,1.20
2019-02-05T10:03:24.576Z,1.20
2019-02-05T10:05:21.180Z,1.20
2019-02-05T10:07:15.611Z,1.30
2019-02-05T10:09:10.242Z,1.40
2019-02-05T10:11:05.467Z,1.40
2019-02-05T10:12:59.542Z,1.50
2019-02-05T10:14:55.145Z,1.50
2019-02-05T10:16:49.130Z,1.50
2019-02-05T10:18:45.858Z,1.60
2019-02-05T10:20:40.233Z,1.70
2019-02-05T10:22:35.160Z,1.80
2019-02-05T10:24:30.068Z,1.80
2019-02-05T10:26:25.159Z,1.80
2019-02-05T10:28:19.860Z,1.90
2019-02-05T10:30:23.644Z,1.90
2019-02-05T10:32:18.318Z,1.90
2019-02-05T10:34:12.404Z,2.00
2019-02-05T10:36:07.003Z,2.00
2019-02-05T10:38:01.499Z,2.10
2019-02-05T10:39:56.031Z,2.10
2019-02-05T10:41:50.307Z,2.20
2019-02-05T10:43:44.998Z,2.20
2019-02-05T10:45:40.240Z,2.20
2019-02-05T10:47:38.495Z,2.30
2019-02-05T10:49:33.529Z,2.30
2019-02-05T10:51:28.033Z,2.30
2019-02-05T10:53:22.729Z,2.30
2019-02-05T10:55:18.223Z,2.40
2019-02-05T10:57:12.955Z,2.60
2019-02-05T10:59:07.407Z,2.80
2019-02-05T11:01:02.609Z,2.90
2019-02-05T11:02:58.140Z,2.80
2019-02-05T11:04:52.961Z,2.90
2019-02-05T11:06:47.909Z,3.00
2019-02-05T11:08:41.955Z,3.10
2019-02-05T11:10:37.294Z,3.20
2019-02-05T11:12:32.586Z,3.30
2019-02-05T11:14:27.522Z,3.30
2019-02-05T11:16:22.575Z,3.30
2019-02-05T11:18:17.220Z,3.40
2019-02-05T11:20:14.433Z,3.40
2019-02-05T11:22:09.273Z,3.50
2019-02-05T11:24:04.671Z,3.50
2019-02-05T11:25:59.486Z,3.60
2019-02-05T11:27:54.426Z,3.60
2019-02-05T11:29:49.438Z,3.80
2019-02-05T11:31:44.756Z,3.80
2019-02-05T11:33:38.845Z,3.90
2019-02-05T11:35:33.629Z,4.00
2019-02-05T11:37:30.386Z,4.00
2019-02-05T11:39:24.788Z,4.10
2019-02-05T11:41:19.325Z,4.10
2019-02-05T11:43:14.094Z,4.10
2019-02-05T11:45:10.590Z,4.20
2019-02-05T11:47:05.859Z,4.20
2019-02-05T11:49:00.778Z,4.30
2019-02-05T11:50:55.003Z,4.30
2019-02-05T11:52:50.031Z,4.30
2019-02-05T11:54:44.579Z,4.30
2019-02-05T11:56:39.577Z,4.20
2019-02-05T11:58:34.750Z,4.10
2019-02-05T12:00:36.905Z,4.30
2019-02-05T12:02:32.729Z,4.30
2019-02-05T12:04:27.785Z,4.30
2019-02-05T12:06:22.122Z,4.20
2019-02-05T12:08:18.790Z,4.30
2019-02-05T12:10:15.279Z,4.20
2019-02-05T12:12:09.756Z,4.30
2019-02-05T12:14:04.548Z,4.30
2019-02-05T12:15:59.991Z,4.30
2019-02-05T12:17:54.682Z,4.20
2019-02-05T12:19:49.488Z,4.10
2019-02-05T12:21:43.870Z,4.00
2019-02-05T12:23:39.283Z,4.00
2019-02-05T12:25:35.328Z,3.90
2019-02-05T12:27:30.782Z,3.90
2019-02-05T12:29:25.599Z,3.90
2019-02-05T12:31:20.811Z,3.80
2019-02-05T12:33:15.796Z,3.70
2019-02-05T12:35:11.187Z,3.60
2019-02-05T12:37:06.503Z,3.60
2019-02-05T12:39:01.623Z,3.60
2019-02-05T12:40:57.486Z,3.50
2019-02-05T12:42:52.571Z,3.30
2019-02-05T12:44:47.154Z,3.30
2019-02-05T12:46:42.642Z,3.30
2019-02-05T12:48:36.905Z,3.20
2019-02-05T12:50:33.598Z,3.10
2019-02-05T12:52:29.190Z,3.10
2019-02-05T12:54:24.253Z,3.00
2019-02-05T12:56:19.305Z,3.00
2019-02-05T12:58:14.531Z,2.90
2019-02-05T13:00:23.322Z,2.80
2019-02-05T13:02:16.989Z,2.80
2019-02-05T13:04:11.200Z,2.80
2019-02-05T13:06:06.230Z,2.80
2019-02-05T13:08:01.065Z,2.80
2019-02-05T13:09:55.390Z,2.60
2019-02-05T13:11:50.119Z,2.60
2019-02-05T13:13:44.654Z,2.60
2019-02-05T13:15:40.747Z,2.70
2019-02-05T13:17:34.828Z,2.70
2019-02-05T13:19:29.455Z,2.70
2019-02-05T13:21:24.229Z,2.70
2019-02-05T13:23:18.301Z,2.60
2019-02-05T13:25:16.564Z,2.60
2019-02-05T13:27:10.780Z,2.60
2019-02-05T13:29:04.911Z,2.60
2019-02-05T13:31:07.590Z,2.50
2019-02-05T13:32:56.037Z,2.60
2019-02-05T13:34:50.993Z,2.60
2019-02-05T13:36:45.646Z,2.40
2019-02-05T13:38:41.285Z,2.30
2019-02-05T13:40:36.428Z,2.30
2019-02-05T13:42:31.392Z,2.20
2019-02-05T13:44:25.955Z,2.30
2019-02-05T13:46:20.446Z,2.30
2019-02-05T13:48:14.331Z,2.30
2019-02-05T13:50:12.793Z,2.30
2019-02-05T13:52:07.968Z,2.30
2019-02-05T13:54:02.991Z,2.20
2019-02-05T13:55:57.179Z,2.10
2019-02-05T13:57:51.630Z,2.10
2019-02-05T13:59:46.216Z,2.10
2019-02-05T14:01:40.996Z,2.00
2019-02-05T14:03:35.976Z,1.80
2019-02-05T14:05:30.661Z,1.80
2019-02-05T14:07:25.545Z,1.80
2019-02-05T14:09:19.786Z,1.70
2019-02-05T14:11:13.746Z,1.60
2019-02-05T14:13:08.626Z,1.50
2019-02-05T14:15:03.710Z,1.40
2019-02-05T14:16:57.910Z,1.50
2019-02-05T14:18:55.233Z,1.50
2019-02-05T14:20:47.809Z,1.50
2019-02-05T14:22:42.620Z,1.50
2019-02-05T14:24:37.359Z,1.30
2019-02-05T14:26:32.048Z,1.30
2019-02-05T14:28:26.960Z,1.10
2019-02-05T14:30:30.683Z,1.00
2019-02-05T14:32:25.279Z,1.00
2019-02-05T14:34:20.123Z,1.10
2019-02-05T14:36:15.082Z,1.20
2019-02-05T14:38:10.611Z,1.20
2019-02-05T14:40:07.730Z,1.30
2019-02-05T14:42:02.342Z,1.30
2019-02-05T14:43:57.627Z,1.30
2019-02-05T14:45:52.212Z,1.20
2019-02-05T14:47:47.125Z,1.20
2019-02-05T14:49:41.511Z,1.20
2019-02-05T14:51:36.406Z,1.20
2019-02-05T14:53:31.121Z,1.20
2019-02-05T14:55:25.783Z,1.30
2019-02-05T14:57:19.831Z,1.30
2019-02-05T14:59:14.100Z,1.30
2019-02-05T15:01:09.054Z,1.20
2019-02-05T15:03:05.207Z,1.20
2019-02-05T15:05:01.367Z,1.10
2019-02-05T15:06:56.906Z,1.10
2019-02-05T15:08:51.063Z,1.00
2019-02-05T15:10:45.426Z,0.80
2019-02-05T15:12:40.885Z,0.80
2019-02-05T15:14:35.687Z,0.60
2019-02-05T15:16:30.214Z,0.60
2019-02-05T15:18:25.559Z,0.50
2019-02-05T15:20:23.318Z,0.40
2019-02-05T15:22:18.014Z,0.40
2019-02-05T15:24:12.099Z,0.30
2019-02-05T15:26:06.854Z,0.30
2019-02-05T15:28:01.502Z,0.20
2019-02-05T15:29:56.408Z,0.20
2019-02-05T15:31:54.606Z,0.20
2019-02-05T15:33:51.130Z,0.30
2019-02-05T15:35:50.431Z,0.20
2019-02-05T15:37:44.914Z,0.20
2019-02-05T15:39:39.150Z,0.20
2019-02-05T15:41:34.027Z,0.10
2019-02-05T15:43:27.994Z,0.00
2019-02-05T15:45:23.031Z,0.00
2019-02-05T15:47:17.153Z,0.00
2019-02-05T15:49:12.103Z,0.00
2019-02-05T15:51:07.016Z,0.00
2019-02-05T15:53:01.140Z,0.00
2019-02-05T15:54:55.669Z,0.00
2019-02-05T15:56:51.031Z,0.00
2019-02-05T15:58:46.099Z,0.00
2019-02-05T16:00:41.047Z,-0.10
2019-02-05T16:02:35.868Z,-0.20
2019-02-05T16:04:30.507Z,-0.30
2019-02-05T16:06:25.487Z,-0.30
2019-02-05T16:08:20.133Z,-0.30
2019-02-05T16:10:15.771Z,-0.40
2019-02-05T16:12:10.721Z,-0.40
2019-02-05T16:14:05.075Z,-0.50
2019-02-05T16:16:00.113Z,-0.50
2019-02-05T16:17:55.108Z,-0.50
2019-02-05T16:19:49.303Z,-0.50
2019-02-05T16:21:44.150Z,-0.60
2019-02-05T16:23:39.026Z,-0.60
2019-02-05T16:25:33.686Z,-0.70
2019-02-05T16:27:28.702Z,-0.70
2019-02-05T16:29:23.559Z,-0.70
2019-02-05T16:31:18.192Z,-0.80
2019-02-05T16:33:13.135Z,-0.80
2019-02-05T16:35:08.341Z,-0.80
2019-02-05T16:37:03.470Z,-0.80
2019-02-05T16:38:58.019Z,-0.80
2019-02-05T16:40:53.550Z,-0.80
2019-02-05T16:42:47.623Z,-0.70
2019-02-05T16:44:41.826Z,-0.70
2019-02-05T16:46:36.070Z,-0.80
2019-02-05T16:48:30.582Z,-0.70
2019-02-05T16:50:37.329Z,-0.70
2019-02-05T16:52:32.073Z,-0.70
2019-02-05T16:54:27.082Z,-0.70
2019-02-05T16:56:21.323Z,-0.70
2019-02-05T16:58:16.001Z,-0.70
2019-02-05T17:00:18.139Z,-0.70
2019-02-05T17:02:12.539Z,-0.70
2019-02-05T17:04:07.595Z,-0.70
2019-02-05T17:06:01.918Z,-0.80
2019-02-05T17:07:56.801Z,-0.80
2019-02-05T17:09:51.439Z,-0.80
2019-02-05T17:11:46.267Z,-0.80
2019-02-05T17:13:40.351Z,-0.80
2019-02-05T17:15:35.104Z,-0.80
2019-02-05T17:17:29.477Z,-0.80
2019-02-05T17:19:24.011Z,-0.80
2019-02-05T17:21:18.940Z,-0.80
2019-02-05T17:23:13.646Z,-0.80
2019-02-05T17:25:09.914Z,-0.80
2019-02-05T17:27:06.204Z,-0.80
2019-02-05T17:29:03.117Z,-0.80
2019-02-05T17:30:58.140Z,-0.70
2019-02-05T17:32:53.601Z,-0.70
2019-02-05T17:34:47.896Z,-0.60
2019-02-05T17:36:43.056Z,-0.60
2019-02-05T17:38:37.771Z,-0.60
2019-02-05T17:40:34.556Z,-0.50
2019-02-05T17:42:29.475Z,-0.60
2019-02-05T17:44:24.892Z,-0.50
2019-02-05T17:46:19.658Z,-0.50
2019-02-05T17:48:16.764Z,-0.50
2019-02-05T17:50:11.927Z,-0.50
2019-02-05T17:52:06.931Z,-0.50
2019-02-05T17:54:02.153Z,-0.50
2019-02-05T17:55:56.200Z,-0.50
2019-02-05T17:57:52.201Z,-0.50
2019-02-05T17:59:46.913Z,-0.50
2019-02-05T18:01:42.154Z,-0.50
2019-02-05T18:03:36.196Z,-0.40
2019-02-05T18:05:30.358Z,-0.50
2019-02-05T18:07:26.586Z,-0.40
2019-02-05T18:09:21.667Z,-0.50
2019-02-05T18:11:16.804Z,-0.50
2019-02-05T18:13:11.249Z,-0.50
2019-02-05T18:15:10.397Z,-0.50
2019-02-05T18:17:04.272Z,-0.50
2019-02-05T18:18:58.859Z,-0.50
2019-02-05T18:20:53.599Z,-0.50
2019-02-05T18:22:48.420Z,-0.60
2019-02-05T18:24:42.579Z,-0.60
2019-02-05T18:26:37.605Z,-0.60
2019-02-05T18:28:33.712Z,-0.50
2019-02-05T18:30:30.269Z,-0.60
2019-02-05T18:32:24.280Z,-0.60
2019-02-05T18:34:19.448Z,-0.60
2019-02-05T18:36:14.632Z,-0.70
2019-02-05T18:38:11.791Z,-0.70
2019-02-05T18:40:08.017Z,-0.70
2019-02-05T18:42:02.966Z,-0.70
2019-02-05T18:43:57.743Z,-0.70
2019-02-05T18:45:51.904Z,-0.70
2019-02-05T18:47:46.132Z,-0.70
2019-02-05T18:49:40.458Z,-0.70
2019-02-05T18:51:35.769Z,-0.70
2019-02-05T18:53:30.747Z,-0.70
2019-02-05T18:55:27.597Z,-0.60
2019-02-05T18:57:22.510Z,-0.60
2019-02-05T18:59:17.254Z,-0.60
2019-02-05T19:01:12.512Z,-0.70
2019-02-05T19:03:14.813Z,-0.60
2019-02-05T19:05:02.460Z,-0.60
2019-02-05T19:06:57.271Z,-0.60
2019-02-05T19:08:52.182Z,-0.70
2019-02-05T19:10:46.593Z,-0.70
2019-02-05T19:12:41.078Z,-0.70
2019-02-05T19:14:35.087Z,-0.70
2019-02-05T19:16:29.796Z,-0.80
2019-02-05T19:18:24.686Z,-0.80
2019-02-05T19:20:21.602Z,-0.80
2019-02-05T19:22:16.158Z,-0.80
2019-02-05T19:24:17.103Z,-0.80
2019-02-05T19:26:22.168Z,-0.80
2019-02-05T19:28:22.305Z,-0.80
2019-02-05T19:30:18.417Z,-0.90
2019-02-05T19:32:15.194Z,-0.90
2019-02-05T19:34:10.307Z,-0.90
2019-02-05T19:36:06.263Z,-0.90
2019-02-05T19:38:00.476Z,-0.90
2019-02-05T19:39:55.090Z,-0.90
2019-02-05T19:41:50.149Z,-1.00
2019-02-05T19:46:11.389Z,-0.90
2019-02-05T19:48:07.405Z,-0.90
2019-02-05T19:50:03.070Z,-0.90
2019-02-05T19:51:58.547Z,-0.90
2019-02-05T19:53:53.975Z,-0.90
2019-02-05T19:55:48.774Z,-0.90
2019-02-05T19:57:43.025Z,-0.90
2019-02-05T19:59:37.810Z,-0.90
2019-02-05T20:01:32.431Z,-0.90
2019-02-05T20:03:38.038Z,-0.90
2019-02-05T20:05:23.451Z,-0.90
2019-02-05T20:07:17.999Z,-0.90
2019-02-05T20:09:14.349Z,-1.00
2019-02-05T20:11:09.159Z,-0.90
2019-02-05T20:13:04.929Z,-1.00
2019-02-05T20:15:00.731Z,-0.90
2019-02-05T20:16:55.044Z,-1.00
2019-02-05T20:18:50.359Z,-1.00
2019-02-05T20:20:45.097Z,-1.00
2019-02-05T20:22:39.640Z,-1.00
2019-02-05T20:24:35.256Z,-1.00
2019-02-05T20:26:29.694Z,-1.00
2019-02-05T20:28:24.891Z,-1.00
2019-02-05T20:30:20.422Z,-1.10
2019-02-05T20:32:14.688Z,-1.10
2019-02-05T20:34:10.139Z,-1.10
2019-02-05T20:36:05.758Z,-1.20
2019-02-05T20:37:59.750Z,-1.20
2019-02-05T20:39:54.762Z,-1.20
2019-02-05T20:41:52.398Z,-1.20
2019-02-05T20:43:45.664Z,-1.30
2019-02-05T20:45:40.370Z,-1.30
2019-02-05T20:47:34.758Z,-1.30
2019-02-05T20:49:29.961Z,-1.30
2019-02-05T20:51:24.815Z,-1.30
2019-02-05T20:53:18.963Z,-1.30
2019-02-05T20:55:14.806Z,-1.40
2019-02-05T20:57:09.389Z,-1.40
2019-02-05T20:59:05.011Z,-1.40
2019-02-05T21:01:00.143Z,-1.40
2019-02-05T21:02:56.803Z,-1.40
2019-02-05T21:04:51.692Z,-1.40
2019-02-05T21:06:45.950Z,-1.40
2019-02-05T21:08:40.729Z,-1.40
2019-02-05T21:10:36.721Z,-1.40
2019-02-05T21:12:31.554Z,-1.40
2019-02-05T21:14:26.254Z,-1.50
2019-02-05T21:16:21.468Z,-1.50
2019-02-05T21:18:17.495Z,-1.50
2019-02-05T21:20:14.251Z,-1.40
2019-02-05T21:22:09.644Z,-1.50
2019-02-05T21:24:04.732Z,-1.50
2019-02-05T21:25:59.780Z,-1.50
2019-02-05T21:27:57.947Z,-1.50
2019-02-05T21:29:50.923Z,-1.50
2019-02-05T21:31:45.104Z,-1.50
2019-02-05T21:33:40.067Z,-1.50
2019-02-05T21:35:34.867Z,-1.50
2019-02-05T21:37:29.554Z,-1.50
2019-02-05T21:39:24.287Z,-1.50
2019-02-05T21:41:19.113Z,-1.50
2019-02-05T21:43:13.434Z,-1.50
2019-02-05T21:45:10.567Z,-1.50
2019-02-05T21:47:05.549Z,-1.50
2019-02-05T21:49:00.651Z,-1.50
2019-02-05T21:50:55.627Z,-1.50
2019-02-05T21:52:49.783Z,-1.50
2019-02-05T21:54:44.928Z,-1.50
2019-02-05T21:56:39.726Z,-1.50
2019-02-05T21:58:34.711Z,-1.50
2019-02-05T22:00:30.670Z,-1.50
2019-02-05T22:02:25.494Z,-1.40
2019-02-05T22:04:26.720Z,-1.40
2019-02-05T22:06:15.658Z,-1.40
2019-02-05T22:08:10.715Z,-1.40
2019-02-05T22:10:06.065Z,-1.40
2019-02-05T22:11:59.761Z,-1.40
2019-02-05T22:13:54.487Z,-1.40
2019-02-05T22:15:49.487Z,-1.30
2019-02-05T22:17:44.444Z,-1.30
2019-02-05T22:19:39.103Z,-1.30
2019-02-05T22:21:33.956Z,-1.40
2019-02-05T22:23:28.958Z,-1.40
2019-02-05T22:25:25.548Z,-1.40
2019-02-05T22:27:20.394Z,-1.40
2019-02-05T22:29:15.347Z,-1.40
2019-02-05T22:31:10.418Z,-1.50
2019-02-05T22:33:06.638Z,-1.50
2019-02-05T22:35:00.983Z,-1.40
2019-02-05T22:36:56.092Z,-1.40
2019-02-05T22:38:50.779Z,-1.40
2019-02-05T22:40:46.398Z,-1.40
2019-02-05T22:42:41.875Z,-1.50
2019-02-05T22:44:37.001Z,-1.50
2019-02-05T22:46:31.758Z,-1.50
2019-02-05T22:48:26.691Z,-1.50
2019-02-05T22:50:24.083Z,-1.60
2019-02-05T22:52:18.772Z,-1.60
2019-02-05T22:54:12.885Z,-1.60
2019-02-05T22:56:08.053Z,-1.60
2019-02-05T22:58:02.939Z,-1.70
2019-02-05T22:59:57.899Z,-1.70
2019-02-05T23:01:55.566Z,-1.70
2019-02-05T23:04:18.860Z,-1.70
2019-02-05T23:06:45.751Z,-1.70
2019-02-05T23:08:40.761Z,-1.70
2019-02-05T23:11:06.478Z,-1.70
2019-02-05T23:13:10.248Z,-1.80
2019-02-05T23:15:13.400Z,-1.80
2019-02-05T23:17:08.386Z,-1.90
2019-02-05T23:19:03.494Z,-2.10
2019-02-05T23:20:58.284Z,-2.10
2019-02-05T23:22:53.235Z,-2.20
2019-02-05T23:24:47.965Z,-2.20
2019-02-05T23:26:42.836Z,-2.20
2019-02-05T23:28:37.835Z,-2.20
2019-02-05T23:30:32.678Z,-2.20
2019-02-05T23:32:27.597Z,-2.20
2019-02-05T23:34:21.962Z,-2.30
2019-02-05T23:36:16.992Z,-2.30
2019-02-05T23:38:11.654Z,-2.30
2019-02-05T23:40:06.842Z,-2.30
2019-02-05T23:42:01.939Z,-2.30
2019-02-05T23:43:56.059Z,-2.30
2019-02-05T23:46:00.964Z,-2.30
2019-02-05T23:47:46.916Z,-2.30
2019-02-05T23:49:41.810Z,-2.30
2019-02-05T23:51:36.121Z,-2.20
2019-02-05T23:53:31.099Z,-2.20
2019-02-05T23:55:26.269Z,-2.20
2019-02-05T23:57:20.372Z,-2.20
2019-02-05T23:59:15.416Z,-2.20
